createdAt,value
2023-03-21T00:01:29.329Z,7.55
2023-03-21T00:03:55.582Z,7.50
2023-03-21T00:06:21.851Z,7.48
2023-03-21T00:08:48.139Z,7.46
2023-03-21T00:11:14.341Z,7.44
2023-03-21T00:13:40.557Z,7.42
2023-03-21T00:16:14.403Z,7.45
2023-03-21T00:18:42.911Z,7.44
2023-03-21T00:21:38.370Z,7.47
2023-03-21T00:23:56.326Z,7.49
2023-03-21T00:26:22.531Z,7.55
2023-03-21T00:28:48.740Z,7.54
2023-03-21T00:31:14.940Z,7.55
2023-03-21T00:33:41.209Z,7.52
2023-03-21T00:36:08.439Z,7.49
2023-03-21T00:38:35.310Z,7.49
2023-03-21T00:41:18.932Z,7.45
2023-03-21T00:43:49.846Z,7.43
2023-03-21T00:46:16.081Z,7.44
2023-03-21T00:48:42.327Z,7.43
2023-03-21T00:51:12.447Z,7.41
2023-03-21T00:53:38.637Z,7.40
2023-03-21T00:56:04.992Z,7.41
2023-03-21T00:58:31.201Z,7.41
2023-03-21T01:00:57.603Z,7.42
2023-03-21T01:03:25.618Z,7.40
2023-03-21T01:05:51.911Z,7.38
2023-03-21T01:08:25.353Z,7.40
2023-03-21T01:10:55.695Z,7.41
2023-03-21T01:13:22.292Z,7.38
2023-03-21T01:15:49.541Z,7.41
2023-03-21T01:18:16.035Z,7.38
2023-03-21T01:20:42.581Z,7.36
2023-03-21T01:23:09.117Z,7.38
2023-03-21T01:25:35.339Z,7.36
2023-03-21T01:28:01.543Z,7.34
2023-03-21T01:30:31.245Z,7.33
2023-03-21T01:32:57.566Z,7.33
2023-03-21T01:35:23.787Z,7.33
2023-03-21T01:37:49.996Z,7.30
2023-03-21T01:40:16.695Z,7.32
2023-03-21T01:42:42.892Z,7.33
2023-03-21T01:45:28.044Z,7.32
2023-03-21T01:47:54.312Z,7.35
2023-03-21T01:50:20.522Z,7.37
2023-03-21T01:52:46.719Z,7.39
2023-03-21T01:55:12.940Z,7.38
2023-03-21T01:57:45.365Z,7.39
2023-03-21T02:00:15.680Z,7.39
2023-03-21T02:02:42.862Z,7.35
2023-03-21T02:05:09.072Z,7.34
2023-03-21T02:07:35.266Z,7.35
2023-03-21T02:10:02.261Z,7.35
2023-03-21T02:12:28.492Z,7.36
2023-03-21T02:14:54.725Z,7.35
2023-03-21T02:17:39.742Z,7.35
2023-03-21T02:20:17.412Z,7.38
2023-03-21T02:22:55.860Z,7.36
2023-03-21T02:25:37.328Z,7.36
2023-03-21T02:28:23.887Z,7.35
2023-03-21T02:31:09.004Z,7.35
2023-03-21T02:33:46.349Z,7.31
2023-03-21T02:36:16.541Z,7.30
2023-03-21T02:38:55.859Z,7.31
2023-03-21T02:41:40.921Z,7.31
2023-03-21T02:44:08.849Z,7.30
2023-03-21T02:46:45.393Z,7.27
2023-03-21T02:49:24.127Z,7.27
2023-03-21T02:51:50.679Z,7.29
2023-03-21T02:54:30.243Z,7.29
2023-03-21T02:56:58.759Z,7.29
2023-03-21T02:59:24.967Z,7.30
2023-03-21T03:01:51.589Z,7.30
2023-03-21T03:04:25.360Z,7.30
2023-03-21T03:06:57.823Z,7.28
2023-03-21T03:09:23.977Z,7.28
2023-03-21T03:11:50.812Z,7.29
2023-03-21T03:14:53.153Z,7.28
2023-03-21T03:17:29.935Z,7.28
2023-03-21T03:20:15.594Z,7.28
2023-03-21T03:22:48.125Z,7.28
2023-03-21T03:25:23.153Z,7.30
2023-03-21T03:27:56.093Z,7.31
2023-03-21T03:30:25.412Z,7.32
2023-03-21T03:32:57.372Z,7.34
2023-03-21T03:35:23.575Z,7.33
2023-03-21T03:37:51.290Z,7.33
2023-03-21T03:40:22.138Z,7.36
2023-03-21T03:42:49.502Z,7.35
2023-03-21T03:45:15.712Z,7.34
2023-03-21T03:47:55.913Z,7.37
2023-03-21T03:50:33.636Z,7.33
2023-03-21T03:53:18.632Z,7.35
2023-03-21T03:55:45.144Z,7.37
2023-03-21T03:58:21.777Z,7.40
2023-03-21T04:00:50.397Z,7.33
2023-03-21T04:03:16.668Z,7.32
2023-03-21T04:05:42.889Z,7.33
2023-03-21T04:08:09.098Z,7.31
2023-03-21T04:10:35.591Z,7.30
2023-03-21T04:13:01.943Z,7.32
2023-03-21T04:15:28.141Z,7.33
2023-03-21T04:17:54.358Z,7.32
2023-03-21T04:20:33.898Z,7.33
2023-03-21T04:23:02.888Z,7.30
2023-03-21T04:25:33.715Z,7.32
2023-03-21T04:28:00.226Z,7.31
2023-03-21T04:30:26.469Z,7.35
2023-03-21T04:32:52.671Z,7.34
2023-03-21T04:35:18.876Z,7.34
2023-03-21T04:37:45.086Z,7.33
2023-03-21T04:40:11.477Z,7.36
2023-03-21T04:42:37.861Z,7.40
2023-03-21T04:45:04.320Z,7.35
2023-03-21T04:47:30.540Z,7.35
2023-03-21T04:49:56.759Z,7.36
2023-03-21T04:52:25.231Z,7.36
2023-03-21T04:54:51.642Z,7.36
2023-03-21T04:57:17.877Z,7.37
2023-03-21T04:59:44.072Z,7.39
2023-03-21T05:02:10.276Z,7.37
2023-03-21T05:04:36.486Z,7.36
2023-03-21T05:07:02.709Z,7.42
2023-03-21T05:09:28.952Z,7.40
2023-03-21T05:11:55.141Z,7.43
2023-03-21T05:14:22.111Z,7.40
2023-03-21T05:16:48.576Z,7.44
2023-03-21T05:19:15.229Z,7.43
2023-03-21T05:21:41.554Z,7.41
2023-03-21T05:24:08.522Z,7.37
2023-03-21T05:26:34.729Z,7.40
2023-03-21T05:29:00.934Z,7.44
2023-03-21T05:31:27.127Z,7.45
2023-03-21T05:33:53.344Z,7.47
2023-03-21T05:36:19.626Z,7.48
2023-03-21T05:38:45.852Z,7.46
2023-03-21T05:41:15.500Z,7.50
2023-03-21T05:43:42.085Z,7.50
2023-03-21T05:46:08.325Z,7.48
2023-03-21T05:48:34.611Z,7.49
2023-03-21T05:51:01.017Z,7.50
2023-03-21T05:53:27.235Z,7.50
2023-03-21T05:55:53.457Z,7.52
2023-03-21T05:58:19.682Z,7.56
2023-03-21T06:00:47.579Z,7.59
2023-03-21T06:03:14.422Z,7.55
2023-03-21T06:05:40.656Z,7.56
2023-03-21T06:08:06.866Z,7.60
2023-03-21T06:10:33.062Z,7.57
2023-03-21T06:12:59.283Z,7.60
2023-03-21T06:15:25.552Z,7.60
2023-03-21T06:17:51.758Z,7.60
2023-03-21T06:20:17.954Z,7.65
2023-03-21T06:22:44.154Z,7.65
2023-03-21T06:25:10.369Z,7.65
2023-03-21T06:27:36.638Z,7.66
2023-03-21T06:30:03.431Z,7.69
2023-03-21T06:32:29.641Z,7.70
2023-03-21T06:34:55.856Z,7.72
2023-03-21T06:37:22.064Z,7.69
2023-03-21T06:39:48.276Z,7.68
2023-03-21T06:42:14.502Z,7.70
2023-03-21T06:44:40.821Z,7.70
2023-03-21T06:47:07.088Z,7.72
2023-03-21T06:49:33.330Z,7.72
2023-03-21T06:51:59.540Z,7.75
2023-03-21T06:54:25.768Z,7.82
2023-03-21T06:56:51.976Z,7.86
2023-03-21T06:59:18.185Z,7.88
2023-03-21T07:01:44.398Z,7.92
2023-03-21T07:04:10.618Z,7.92
2023-03-21T07:06:36.828Z,7.96
2023-03-21T07:09:03.098Z,7.96
2023-03-21T07:11:29.311Z,7.97
2023-03-21T07:13:55.532Z,8.00
2023-03-21T07:16:21.885Z,8.11
2023-03-21T07:18:48.158Z,8.14
2023-03-21T07:21:14.350Z,8.20
2023-03-21T07:23:40.551Z,8.25
2023-03-21T07:26:06.873Z,8.19
2023-03-21T07:28:33.105Z,8.20
2023-03-21T07:31:00.232Z,8.24
2023-03-21T07:33:26.538Z,8.27
2023-03-21T07:35:53.673Z,8.31
2023-03-21T07:38:19.904Z,8.34
2023-03-21T07:40:46.272Z,8.35
2023-03-21T07:43:12.567Z,8.35
2023-03-21T07:45:39.077Z,8.33
2023-03-21T07:48:05.495Z,8.41
2023-03-21T07:50:31.789Z,8.41
2023-03-21T07:52:58.004Z,8.35
2023-03-21T07:55:24.218Z,8.35
2023-03-21T07:57:50.436Z,8.43
2023-03-21T08:00:17.382Z,8.45
2023-03-21T08:02:43.647Z,8.49
2023-03-21T08:05:09.901Z,8.51
2023-03-21T08:07:36.105Z,8.61
2023-03-21T08:10:02.329Z,8.72
2023-03-21T08:12:28.553Z,8.82
2023-03-21T08:14:54.766Z,8.70
2023-03-21T08:17:20.972Z,8.70
2023-03-21T08:19:47.178Z,8.74
2023-03-21T08:22:13.390Z,8.74
2023-03-21T08:24:39.617Z,8.77
2023-03-21T08:27:05.888Z,8.78
2023-03-21T08:29:32.113Z,8.83
2023-03-21T08:31:58.322Z,8.91
2023-03-21T08:34:24.527Z,8.93
2023-03-21T08:36:50.750Z,8.92
2023-03-21T08:39:16.982Z,9.01
2023-03-21T08:41:43.185Z,9.06
2023-03-21T08:44:09.666Z,9.08
2023-03-21T08:46:35.905Z,9.13
2023-03-21T08:49:02.152Z,9.16
2023-03-21T08:51:28.368Z,9.05
2023-03-21T08:53:54.592Z,9.14
2023-03-21T08:56:20.831Z,9.19
2023-03-21T08:58:47.030Z,9.24
2023-03-21T09:01:13.244Z,9.28
2023-03-21T09:03:39.454Z,9.49
2023-03-21T09:06:05.732Z,9.63
2023-03-21T09:08:31.962Z,9.55
2023-03-21T09:10:58.208Z,9.49
2023-03-21T09:13:24.427Z,9.48
2023-03-21T09:15:50.656Z,9.58
2023-03-21T09:18:16.889Z,9.67
2023-03-21T09:20:43.161Z,9.84
2023-03-21T09:23:09.836Z,9.95
2023-03-21T09:25:36.663Z,9.92
2023-03-21T09:28:03.063Z,9.87
2023-03-21T09:30:29.373Z,9.96
2023-03-21T09:32:55.769Z,10.09
2023-03-21T09:35:22.151Z,10.26
2023-03-21T09:37:48.423Z,10.38
2023-03-21T09:40:16.405Z,10.47
2023-03-21T09:42:55.888Z,10.45
2023-03-21T09:45:23.985Z,10.32
2023-03-21T09:47:50.222Z,10.44
2023-03-21T09:50:20.738Z,10.47
2023-03-21T09:52:51.639Z,10.43
2023-03-21T09:55:17.901Z,10.49
2023-03-21T09:57:44.121Z,10.42
2023-03-21T10:00:12.893Z,10.41
2023-03-21T10:02:40.229Z,10.49
2023-03-21T10:05:14.939Z,10.45
2023-03-21T10:07:42.253Z,10.36
2023-03-21T10:10:15.236Z,10.45
2023-03-21T10:12:41.438Z,10.45
2023-03-21T10:15:07.727Z,10.45
2023-03-21T10:17:35.426Z,10.49
2023-03-21T10:20:12.241Z,10.55
2023-03-21T10:22:38.535Z,10.61
2023-03-21T10:25:05.255Z,10.52
2023-03-21T10:27:31.675Z,10.62
2023-03-21T10:29:57.892Z,10.62
2023-03-21T10:32:24.119Z,10.62
2023-03-21T10:34:51.200Z,10.71
2023-03-21T10:37:17.416Z,10.64
2023-03-21T10:39:43.890Z,10.63
2023-03-21T10:42:23.507Z,10.73
2023-03-21T10:44:50.026Z,10.63
2023-03-21T10:47:23.266Z,10.56
2023-03-21T10:50:06.882Z,10.64
2023-03-21T10:52:33.799Z,10.59
2023-03-21T10:55:29.478Z,10.66
2023-03-21T10:57:56.796Z,10.66
2023-03-21T11:00:24.611Z,10.59
2023-03-21T11:02:51.145Z,10.69
2023-03-21T11:05:20.780Z,10.69
2023-03-21T11:07:47.197Z,10.75
2023-03-21T11:10:20.008Z,10.68
2023-03-21T11:12:53.721Z,10.59
2023-03-21T11:15:28.349Z,10.62
2023-03-21T11:17:54.607Z,10.67
2023-03-21T11:20:20.996Z,10.56
2023-03-21T11:22:47.517Z,10.61
2023-03-21T11:25:20.807Z,10.66
2023-03-21T11:27:50.356Z,10.41
2023-03-21T11:30:21.092Z,10.49
2023-03-21T11:32:50.341Z,10.51
2023-03-21T11:35:19.860Z,10.61
2023-03-21T11:37:46.754Z,10.57
2023-03-21T11:40:25.165Z,10.57
2023-03-21T11:42:52.133Z,10.50
2023-03-21T11:45:19.800Z,10.46
2023-03-21T11:47:46.344Z,10.55
2023-03-21T11:50:31.122Z,10.64
2023-03-21T11:53:05.036Z,10.54
2023-03-21T11:55:31.236Z,10.65
2023-03-21T11:58:13.513Z,10.76
2023-03-21T12:00:47.759Z,10.79
2023-03-21T12:03:13.920Z,10.84
2023-03-21T12:05:43.511Z,10.84
2023-03-21T12:08:12.692Z,10.87
2023-03-21T12:10:40.608Z,10.89
2023-03-21T12:13:13.389Z,10.92
2023-03-21T12:15:42.182Z,11.01
2023-03-21T12:18:24.972Z,10.93
2023-03-21T12:20:54.828Z,10.85
2023-03-21T12:23:21.090Z,10.81
2023-03-21T12:26:09.289Z,10.78
2023-03-21T12:28:44.632Z,10.83
2023-03-21T12:31:17.704Z,10.81
2023-03-21T12:34:02.877Z,10.80
2023-03-21T12:36:32.504Z,10.82
2023-03-21T12:39:01.711Z,10.80
2023-03-21T12:41:46.403Z,10.84
2023-03-21T12:44:15.648Z,10.82
2023-03-21T12:47:11.134Z,10.76
2023-03-21T12:49:51.983Z,10.66
2023-03-21T12:52:23.991Z,10.68
2023-03-21T12:54:51.802Z,10.80
2023-03-21T12:57:19.127Z,10.76
2023-03-21T12:59:51.522Z,10.71
2023-03-21T13:02:18.822Z,10.71
2023-03-21T13:04:51.220Z,10.75
2023-03-21T13:07:17.737Z,10.72
2023-03-21T13:09:44.024Z,10.72
2023-03-21T13:12:19.850Z,10.74
2023-03-21T13:15:12.505Z,10.72
2023-03-21T13:17:42.517Z,10.76
2023-03-21T13:20:13.060Z,10.83
2023-03-21T13:22:39.260Z,10.95
2023-03-21T13:25:06.191Z,11.06
2023-03-21T13:27:33.154Z,11.01
2023-03-21T13:30:03.985Z,10.89
2023-03-21T13:32:38.314Z,10.82
2023-03-21T13:35:23.359Z,10.87
2023-03-21T13:37:50.149Z,10.85
2023-03-21T13:40:20.715Z,10.93
2023-03-21T13:42:50.189Z,10.89
2023-03-21T13:45:23.332Z,10.76
2023-03-21T13:47:55.373Z,10.68
2023-03-21T13:50:22.537Z,10.65
2023-03-21T13:53:04.046Z,10.62
2023-03-21T13:55:30.694Z,10.56
2023-03-21T13:57:56.904Z,10.56
2023-03-21T14:00:29.482Z,10.60
2023-03-21T14:02:59.773Z,10.60
2023-03-21T14:05:26.135Z,10.65
2023-03-21T14:07:54.735Z,10.61
2023-03-21T14:10:35.904Z,10.63
2023-03-21T14:13:02.183Z,10.61
2023-03-21T14:15:43.756Z,10.58
2023-03-21T14:18:27.856Z,10.57
2023-03-21T14:21:02.301Z,10.55
2023-03-21T14:23:29.775Z,10.50
2023-03-21T14:25:55.983Z,10.48
2023-03-21T14:28:25.384Z,10.47
2023-03-21T14:30:54.972Z,10.48
2023-03-21T14:33:37.052Z,10.53
2023-03-21T14:36:04.999Z,10.57
2023-03-21T14:38:35.202Z,10.54
2023-03-21T14:41:01.409Z,10.53
2023-03-21T14:43:27.633Z,10.54
2023-03-21T14:45:54.946Z,10.56
2023-03-21T14:48:22.084Z,10.53
2023-03-21T14:50:51.845Z,10.54
2023-03-21T14:53:32.029Z,10.54
2023-03-21T14:55:59.754Z,10.48
2023-03-21T14:58:25.955Z,10.49
2023-03-21T15:00:52.147Z,10.50
2023-03-21T15:03:18.797Z,10.49
2023-03-21T15:05:45.020Z,10.45
2023-03-21T15:08:11.177Z,10.44
2023-03-21T15:10:37.381Z,10.46
2023-03-21T15:13:13.532Z,10.45
2023-03-21T15:15:40.064Z,10.40
2023-03-21T15:18:06.562Z,10.45
2023-03-21T15:20:33.804Z,10.42
2023-03-21T15:23:01.340Z,10.39
2023-03-21T15:25:28.232Z,10.37
2023-03-21T15:27:54.442Z,10.35
2023-03-21T15:30:21.980Z,10.33
2023-03-21T15:32:48.654Z,10.32
2023-03-21T15:35:15.578Z,10.33
2023-03-21T15:37:41.798Z,10.29
2023-03-21T15:40:09.086Z,10.31
2023-03-21T15:42:38.938Z,10.24
2023-03-21T15:45:20.225Z,10.23
2023-03-21T15:47:49.563Z,10.20
2023-03-21T15:50:34.597Z,10.20
2023-03-21T15:53:01.270Z,10.17
2023-03-21T15:55:31.333Z,10.16
2023-03-21T15:58:03.286Z,10.15
2023-03-21T16:00:35.576Z,10.15
2023-03-21T16:03:03.850Z,10.14
2023-03-21T16:05:30.710Z,10.13
2023-03-21T16:08:15.724Z,10.16
2023-03-21T16:10:42.340Z,10.15
2023-03-21T16:13:10.052Z,10.16
2023-03-21T16:15:36.258Z,10.10
2023-03-21T16:18:02.627Z,10.07
2023-03-21T16:20:31.028Z,10.07
2023-03-21T16:22:57.248Z,10.07
2023-03-21T16:25:23.487Z,10.03
2023-03-21T16:27:49.727Z,10.03
2023-03-21T16:30:17.331Z,10.04
2023-03-21T16:32:43.534Z,10.03
2023-03-21T16:35:09.749Z,10.04
2023-03-21T16:37:35.967Z,10.00
2023-03-21T16:40:02.286Z,9.97
2023-03-21T16:42:28.609Z,9.97
2023-03-21T16:44:55.042Z,9.99
2023-03-21T16:47:21.292Z,9.95
2023-03-21T16:49:47.540Z,9.96
2023-03-21T16:52:13.824Z,9.95
2023-03-21T16:54:40.341Z,9.95
2023-03-21T16:57:06.833Z,9.92
2023-03-21T16:59:33.410Z,9.92
2023-03-21T17:01:59.610Z,9.93
2023-03-21T17:04:25.828Z,9.89
2023-03-21T17:06:52.496Z,9.92
2023-03-21T17:09:19.587Z,9.88
2023-03-21T17:11:45.792Z,9.84
2023-03-21T17:14:12.065Z,9.83
2023-03-21T17:16:38.413Z,9.78
2023-03-21T17:19:07.192Z,9.80
2023-03-21T17:21:33.382Z,9.80
2023-03-21T17:23:59.601Z,9.80
2023-03-21T17:26:26.413Z,9.79
2023-03-21T17:28:55.185Z,9.75
2023-03-21T17:31:21.987Z,9.77
2023-03-21T17:33:48.278Z,9.76
2023-03-21T17:36:15.005Z,9.74
2023-03-21T17:38:41.244Z,9.76
2023-03-21T17:41:10.236Z,9.73
2023-03-21T17:43:36.437Z,9.71
2023-03-21T17:46:02.670Z,9.72
2023-03-21T17:48:28.933Z,9.72
2023-03-21T17:50:55.137Z,9.71
2023-03-21T17:53:21.352Z,9.69
2023-03-21T17:55:47.564Z,9.68
2023-03-21T17:58:13.766Z,9.66
2023-03-21T18:00:40.274Z,9.68
2023-03-21T18:03:06.632Z,9.69
2023-03-21T18:05:32.842Z,9.65
2023-03-21T18:08:10.931Z,9.66
2023-03-21T18:10:38.708Z,9.66
2023-03-21T18:13:05.026Z,9.64
2023-03-21T18:15:31.296Z,9.65
2023-03-21T18:17:57.697Z,9.67
2023-03-21T18:20:24.406Z,9.70
2023-03-21T18:22:50.665Z,9.63
2023-03-21T18:25:16.869Z,9.61
2023-03-21T18:28:06.984Z,9.61
2023-03-21T18:30:53.060Z,9.54
2023-03-21T18:33:15.474Z,9.54
2023-03-21T18:35:41.737Z,9.49
2023-03-21T18:38:07.958Z,9.44
2023-03-21T18:40:34.164Z,9.40
2023-03-21T18:43:47.321Z,9.35
2023-03-21T18:45:46.652Z,9.30
2023-03-21T18:48:12.905Z,9.28
2023-03-21T18:50:39.594Z,9.27
2023-03-21T18:53:05.991Z,9.25
2023-03-21T18:55:45.413Z,9.21
2023-03-21T18:58:12.936Z,9.21
2023-03-21T19:00:39.517Z,9.19
2023-03-21T19:03:18.929Z,9.17
2023-03-21T19:05:50.906Z,9.18
2023-03-21T19:08:17.098Z,9.16
2023-03-21T19:10:43.374Z,9.12
2023-03-21T19:13:09.579Z,9.11
2023-03-21T19:15:35.781Z,9.09
2023-03-21T19:20:48.170Z,9.02
2023-03-21T19:23:14.648Z,8.98
2023-03-21T19:25:40.911Z,8.99
2023-03-21T19:28:07.111Z,8.99
2023-03-21T19:30:34.188Z,8.96
2023-03-21T19:33:00.489Z,8.95
2023-03-21T19:35:28.256Z,8.94
2023-03-21T19:37:54.528Z,8.93
2023-03-21T19:40:20.751Z,8.89
2023-03-21T19:42:46.980Z,8.89
2023-03-21T19:45:13.196Z,8.88
2023-03-21T19:47:39.477Z,8.85
2023-03-21T19:50:45.513Z,8.81
2023-03-21T19:52:52.278Z,8.78
2023-03-21T19:55:18.505Z,8.78
2023-03-21T19:57:44.700Z,8.76
2023-03-21T20:00:11.108Z,8.77
2023-03-21T20:02:37.627Z,8.82
2023-03-21T20:05:07.062Z,8.77
2023-03-21T20:07:33.305Z,8.76
2023-03-21T20:09:59.512Z,8.76
2023-03-21T20:12:25.735Z,8.72
2023-03-21T20:14:57.970Z,8.71
2023-03-21T20:17:27.187Z,8.72
2023-03-21T20:19:53.392Z,8.69
2023-03-21T20:22:29.414Z,8.69
2023-03-21T20:25:06.119Z,8.65
2023-03-21T20:27:34.571Z,8.66
2023-03-21T20:30:09.043Z,8.69
2023-03-21T20:32:36.487Z,8.70
2023-03-21T20:35:17.042Z,8.71
2023-03-21T20:37:46.336Z,8.71
2023-03-21T20:40:12.796Z,8.76
2023-03-21T20:42:39.357Z,8.70
2023-03-21T20:45:06.015Z,8.74
2023-03-21T20:47:32.228Z,8.74
2023-03-21T20:49:58.448Z,8.71
2023-03-21T20:55:11.490Z,8.72
2023-03-21T20:57:38.932Z,8.72
2023-03-21T21:00:05.509Z,8.71
2023-03-21T21:02:31.733Z,8.70
2023-03-21T21:05:24.335Z,8.68
2023-03-21T21:07:44.148Z,8.65
2023-03-21T21:10:10.879Z,8.64
2023-03-21T21:12:37.743Z,8.67
2023-03-21T21:15:04.117Z,8.70
2023-03-21T21:17:57.841Z,8.66
2023-03-21T21:20:16.638Z,8.64
2023-03-21T21:22:59.494Z,8.60
2023-03-21T21:25:26.691Z,8.54
2023-03-21T21:27:52.914Z,8.56
2023-03-21T21:30:19.127Z,8.57
2023-03-21T21:32:45.364Z,8.61
2023-03-21T21:35:11.562Z,8.59
2023-03-21T21:37:37.778Z,8.62
2023-03-21T21:40:04.140Z,8.65
2023-03-21T21:42:30.364Z,8.74
2023-03-21T21:44:56.576Z,8.79
2023-03-21T21:47:22.805Z,8.76
2023-03-21T21:49:49.039Z,8.78
2023-03-21T21:52:15.260Z,8.72
2023-03-21T21:54:41.465Z,8.73
2023-03-21T21:57:07.662Z,8.70
2023-03-21T21:59:33.891Z,8.71
2023-03-21T22:02:00.110Z,8.75
2023-03-21T22:04:26.328Z,8.74
2023-03-21T22:06:52.873Z,8.78
2023-03-21T22:09:19.079Z,8.77
2023-03-21T22:11:45.283Z,8.79
2023-03-21T22:14:11.494Z,8.79
2023-03-21T22:16:37.733Z,8.84
2023-03-21T22:19:04.087Z,8.88
2023-03-21T22:21:30.388Z,8.89
2023-03-21T22:23:56.646Z,8.85
2023-03-21T22:26:23.008Z,8.84
2023-03-21T22:28:49.306Z,8.84
2023-03-21T22:31:15.905Z,8.93
2023-03-21T22:33:42.544Z,8.92
2023-03-21T22:36:08.922Z,8.92
2023-03-21T22:38:35.134Z,8.99
2023-03-21T22:41:01.768Z,8.99
2023-03-21T22:43:28.407Z,9.02
2023-03-21T22:45:54.688Z,9.02
2023-03-21T22:48:21.232Z,9.01
2023-03-21T22:50:47.657Z,9.11
2023-03-21T22:53:13.859Z,9.02
2023-03-21T22:55:40.152Z,9.03
2023-03-21T22:58:06.398Z,9.07
2023-03-21T23:00:32.621Z,9.12
2023-03-21T23:02:58.836Z,9.07
2023-03-21T23:05:25.231Z,9.11
2023-03-21T23:07:51.436Z,9.14
2023-03-21T23:10:17.644Z,9.09
2023-03-21T23:12:43.842Z,9.08
2023-03-21T23:15:10.297Z,9.10
2023-03-21T23:17:36.507Z,9.09
2023-03-21T23:20:02.727Z,9.07
2023-03-21T23:22:31.754Z,9.06
2023-03-21T23:24:58.019Z,9.09
2023-03-21T23:27:24.238Z,9.12
2023-03-21T23:29:50.481Z,9.10
2023-03-21T23:32:16.682Z,9.13
2023-03-21T23:34:42.878Z,9.14
2023-03-21T23:37:09.082Z,9.17
2023-03-21T23:39:35.295Z,9.14
2023-03-21T23:42:01.517Z,9.11
2023-03-21T23:44:27.722Z,9.15
2023-03-21T23:46:53.974Z,9.12
2023-03-21T23:49:20.176Z,9.16
2023-03-21T23:51:46.384Z,9.12
2023-03-21T23:54:12.661Z,9.14
2023-03-21T23:56:38.857Z,9.12
2023-03-21T23:59:05.071Z,9.09
